Wilder, Kentucky
Current Conditions -  °F | °C
As of 8:53 PM on Saturday 25 Oct 2014 (Local Time) from KLUK Reporting Station
Clear Clear  
Wind Chill: 65°   Ceiling: Unl
Heat Index: 65°   Visibility: 10mi
Dew Point: 53°   Wind: 10mph
Humidity: 65%   Direction: 240°WSW
Pressure: 29.91"   Gusts: NA
Location:  39.0173°N, 84.4405°W
Report Text: KLUK 260053Z 24009KT 10SM CLR 18/12 A2991 RMK AO2 SLP127 T01830117
Loading
Personal Weather Stations






























Interactive Weather Map
Tropical Storm Tracking
New forecast layout! Learn more

10-Day Weather Forecast

Advertisements
Track Severe Weather on mobile